Time;durP1;ratioP1;P1;durP2;ratioP2;P2;SDS_P1;SDS_P2;PMS_P1;PMS_P2;Temp;Humidity;BMP_temperature;BMP_pressure;BME280_temperature;BME280_humidity;BME280_pressure;Samples;Min_cycle;Max_cycle;Signal;HPM_P1;HPM_P2
2022/02/04 00:23:45;;;;;;;4.18;2.88;;;;;;;-2.37;58.51;95253.59;5087929;28;20063;-67
2022/02/04 00:33:33;;;;;;;4.82;3.55;;;;;;;-2.39;59.81;95263.00;5125444;28;20057;-67
2022/02/04 00:36:08;;;;;;;7.15;3.53;;;;;;;-2.47;60.25;95260.66;5092928;28;20489;-67
2022/02/04 00:38:37;;;;;;;5.18;3.30;;;;;;;-2.49;60.46;95261.56;5094373;28;20055;-68
2022/02/04 00:41:08;;;;;;;5.95;3.00;;;;;;;-2.50;61.04;95265.00;5111062;28;20035;-67
2022/02/04 00:43:34;;;;;;;5.03;3.17;;;;;;;-2.49;59.87;95252.22;5112081;28;20066;-68
2022/02/04 00:46:09;;;;;;;4.22;3.20;;;;;;;-2.57;59.08;95250.75;5109835;28;20035;-68
2022/02/04 00:51:21;;;;;;;4.75;2.92;;;;;;;-2.62;59.02;95250.88;5094468;28;20092;-67
2022/02/04 01:28:22;;;;;;;6.78;3.58;;;;;;;-3.23;61.01;95239.56;5114790;27;20043;-67
2022/02/04 01:30:47;;;;;;;6.28;3.03;;;;;;;-3.26;61.37;95237.97;5096553;28;20023;-68
2022/02/04 01:33:13;;;;;;;4.75;3.10;;;;;;;-3.34;60.65;95237.28;5115664;27;20031;-67
2022/02/04 01:35:39;;;;;;;3.95;2.58;;;;;;;-3.37;60.71;95230.56;5132938;27;20034;-68
2022/02/04 01:38:04;;;;;;;4.53;3.13;;;;;;;-3.38;61.49;95228.88;5125622;27;20034;-67
2022/02/04 01:40:30;;;;;;;6.07;3.17;;;;;;;-3.39;61.34;95232.31;5093716;28;20117;-67
2022/02/04 01:42:55;;;;;;;5.03;2.72;;;;;;;-3.44;60.71;95239.19;5093699;28;20028;-67
2022/02/04 01:45:20;;;;;;;5.78;3.15;;;;;;;-3.47;61.06;95235.88;5113830;27;20036;-67
2022/02/04 01:47:55;;;;;;;4.28;2.90;;;;;;;-3.46;60.67;95238.38;5112844;28;20019;-67
2022/02/04 01:50:22;;;;;;;3.40;2.70;;;;;;;-3.56;59.81;95226.75;5112737;28;20084;-67
2022/02/04 01:52:47;;;;;;;5.70;3.50;;;;;;;-3.60;60.13;95230.22;5112671;28;20035;-67
2022/02/04 01:55:14;;;;;;;4.80;3.05;;;;;;;-3.62;60.38;95227.72;5130667;27;20454;-67
2022/02/04 01:57:39;;;;;;;4.35;3.20;;;;;;;-3.66;60.98;95228.66;5078681;28;20441;-67
2022/02/04 02:00:05;;;;;;;4.85;3.13;;;;;;;-3.68;61.51;95238.00;5112407;28;20044;-67
2022/02/04 02:02:31;;;;;;;6.00;2.80;;;;;;;-3.73;61.43;95239.81;5112491;28;20042;-68
2022/02/04 02:04:56;;;;;;;4.28;2.72;;;;;;;-3.65;60.86;95237.97;5127883;27;20031;-67
2022/02/04 02:07:24;;;;;;;4.93;3.00;;;;;;;-3.68;60.32;95225.28;5115843;27;20031;-67
2022/02/04 02:12:18;;;;;;;6.43;3.28;;;;;;;-3.67;61.02;95237.13;5132534;27;20036;-67
2022/02/04 02:14:44;;;;;;;6.50;3.20;;;;;;;-3.70;59.96;95229.59;5132873;27;20412;-67
2022/02/04 02:59:41;;;;;;;3.17;2.13;;;;;;;-3.77;61.22;95217.88;5130698;27;20118;-67
2022/02/04 03:02:07;;;;;;;4.28;2.88;;;;;;;-3.98;62.14;95220.84;5112601;28;20035;-67
2022/02/04 03:04:32;;;;;;;11.07;6.07;;;;;;;-3.93;61.88;95236.81;5094512;28;20028;-67
2022/02/04 03:06:58;;;;;;;8.40;5.05;;;;;;;-3.94;62.07;95230.09;5116354;27;20042;-67
2022/02/04 03:09:23;;;;;;;4.93;3.42;;;;;;;-4.10;62.73;95229.53;5110607;28;20033;-67
2022/02/04 03:11:49;;;;;;;6.88;3.50;;;;;;;-4.18;62.34;95232.25;5111196;28;20027;-67
2022/02/04 03:14:14;;;;;;;5.32;3.28;;;;;;;-4.54;63.42;95238.78;5093940;28;20076;-67
2022/02/04 03:16:39;;;;;;;5.45;2.92;;;;;;;-4.36;63.39;95230.03;5111227;27;20024;-67
2022/02/04 03:19:07;;;;;;;5.40;2.95;;;;;;;-4.45;63.52;95235.28;5110922;28;20084;-67
2022/02/04 03:21:39;;;;;;;5.35;2.70;;;;;;;-4.49;63.85;95232.78;5110126;28;20020;-67
2022/02/04 03:24:10;;;;;;;4.70;3.10;;;;;;;-4.41;63.79;95219.97;5094930;28;20549;-67
2022/02/04 03:26:56;;;;;;;5.38;2.40;;;;;;;-4.39;63.41;95223.31;5091525;28;20317;-67
2022/02/04 03:29:28;;;;;;;9.60;2.95;;;;;;;-4.36;63.98;95222.44;5076594;28;20036;-67
2022/02/04 03:32:00;;;;;;;16.40;7.13;;;;;;;-4.40;63.69;95220.78;5126441;27;20035;-67
2022/02/04 03:34:26;;;;;;;12.45;5.78;;;;;;;-4.46;64.12;95213.31;5131474;27;20495;-67
2022/02/04 03:36:52;;;;;;;30.42;13.20;;;;;;;-4.73;63.78;95192.66;5131322;27;20062;-67
2022/02/04 03:39:18;;;;;;;20.80;8.90;;;;;;;-4.59;63.59;95205.09;5131015;27;20114;-67
2022/02/04 03:41:43;;;;;;;15.98;8.23;;;;;;;-4.58;63.58;95217.72;5130883;27;20031;-67
2022/02/04 03:44:09;;;;;;;20.00;9.43;;;;;;;-4.61;63.72;95207.66;5115910;27;20027;-67
2022/02/04 03:46:34;;;;;;;12.55;6.90;;;;;;;-4.64;63.98;95197.56;5123680;27;20042;-67
2022/02/04 03:48:59;;;;;;;7.68;3.30;;;;;;;-4.70;63.61;95207.00;5113989;27;20027;-67
2022/02/04 03:51:25;;;;;;;4.47;2.67;;;;;;;-4.63;63.13;95201.75;5131936;27;20027;-67
2022/02/04 03:53:50;;;;;;;5.32;2.85;;;;;;;-4.61;62.89;95207.66;5131024;27;20035;-67
2022/02/04 03:56:16;;;;;;;4.82;3.00;;;;;;;-4.57;62.28;95211.81;5132084;27;20038;-67
2022/02/04 03:58:42;;;;;;;3.67;2.63;;;;;;;-4.58;62.60;95204.22;5132217;27;20031;-67
2022/02/04 04:01:07;;;;;;;5.47;3.85;;;;;;;-4.55;62.36;95210.06;5132055;27;20049;-67
2022/02/04 04:03:33;;;;;;;3.92;2.78;;;;;;;-4.55;62.84;95199.09;5111774;27;20043;-67
2022/02/04 04:05:58;;;;;;;3.47;2.53;;;;;;;-4.56;62.03;95197.44;5132000;27;20079;-67
2022/02/04 04:08:24;;;;;;;4.97;3.10;;;;;;;-4.53;61.75;95193.13;5130783;27;20034;-67
2022/02/04 04:10:51;;;;;;;4.32;2.80;;;;;;;-4.47;62.35;95186.28;5094899;27;20027;-67
2022/02/04 04:13:17;;;;;;;4.28;2.92;;;;;;;-4.61;62.84;95186.53;5113655;28;20412;-67
2022/02/04 04:15:42;;;;;;;5.25;3.13;;;;;;;-4.55;62.36;95187.25;5127679;27;20035;-67
2022/02/04 04:18:12;;;;;;;6.50;2.95;;;;;;;-4.58;62.50;95182.22;5109915;28;20023;-67
2022/02/04 04:20:38;;;;;;;5.35;3.10;;;;;;;-4.53;62.07;95182.16;5077420;28;20031;-67
2022/02/04 04:23:03;;;;;;;5.38;2.78;;;;;;;-4.46;62.23;95190.47;5109851;28;20123;-67
2022/02/04 04:25:29;;;;;;;4.85;2.90;;;;;;;-4.43;62.33;95190.41;5116307;28;20497;-67
2022/02/04 04:27:55;;;;;;;4.82;3.03;;;;;;;-4.39;62.96;95186.97;5125987;28;20084;-67
2022/02/04 04:30:23;;;;;;;6.85;3.00;;;;;;;-4.38;62.36;95186.94;5132119;27;20035;-67
2022/02/04 04:32:48;;;;;;;5.60;3.70;;;;;;;-4.37;61.76;95180.19;5113544;28;20027;-67
2022/02/04 04:35:15;;;;;;;7.75;4.75;;;;;;;-4.35;61.63;95184.34;5129298;27;20062;-67
2022/02/04 04:37:50;;;;;;;5.72;3.65;;;;;;;-4.42;62.13;95182.78;5104170;28;20063;-67
2022/02/04 04:40:43;;;;;;;7.78;3.67;;;;;;;-4.49;62.23;95182.06;5091120;28;20035;-67
2022/02/04 05:31:17;;;;;;;7.78;4.43;;;;;;;-4.56;65.93;95215.19;5113617;28;20031;-67
2022/02/04 05:33:42;;;;;;;10.13;5.68;;;;;;;-4.55;66.10;95211.78;5079336;28;20080;-67
2022/02/04 05:36:09;;;;;;;15.82;8.35;;;;;;;-4.60;66.09;95211.84;5101843;27;20049;-67
2022/02/04 05:38:35;;;;;;;16.63;9.80;;;;;;;-4.55;66.82;95220.22;5114241;28;20062;-67
2022/02/04 05:41:01;;;;;;;20.17;10.57;;;;;;;-4.55;66.79;95217.69;5114152;28;20028;-67
2022/02/04 05:43:31;;;;;;;17.95;9.15;;;;;;;-4.56;66.43;95216.00;5096116;28;20019;-67
2022/02/04 05:46:02;;;;;;;32.20;13.63;;;;;;;-4.50;66.38;95220.97;5129243;27;20027;-67
2022/02/04 05:48:28;;;;;;;14.88;7.75;;;;;;;-4.44;66.49;95216.66;5110809;28;20024;-67
2022/02/04 05:53:25;;;;;;;7.82;4.18;;;;;;;-4.39;64.46;95210.63;5113065;28;20039;-67
2022/02/04 05:56:20;;;;;;;7.13;4.47;;;;;;;-4.33;63.94;95223.19;5096479;28;20041;-67
2022/02/04 05:58:48;;;;;;;6.35;4.30;;;;;;;-4.39;63.57;95214.88;5099242;27;20046;-67
2022/02/04 06:01:32;;;;;;;6.80;4.43;;;;;;;-4.30;63.02;95213.00;5101942;27;20050;-67
2022/02/04 06:12:21;;;;;;;28.30;14.13;;;;;;;-4.53;65.30;95221.03;5092295;28;20088;-67
2022/02/04 06:15:10;;;;;;;48.53;22.63;;;;;;;-4.56;66.98;95230.41;5109512;27;20464;-67
2022/02/04 06:23:05;;;;;;;13.35;7.07;;;;;;;-4.23;65.12;95239.09;5116286;27;20069;-67
2022/02/04 06:25:31;;;;;;;12.57;5.65;;;;;;;-4.25;64.37;95218.00;5132297;27;20031;-67
2022/02/04 06:27:56;;;;;;;9.05;4.80;;;;;;;-4.08;64.27;95232.88;5128316;27;20062;-67
2022/02/04 06:30:22;;;;;;;9.88;4.72;;;;;;;-3.99;63.62;95237.78;5096660;27;20039;-67
2022/02/04 06:32:47;;;;;;;8.68;4.32;;;;;;;-3.91;62.68;95255.41;5103376;28;20020;-67
2022/02/04 06:35:13;;;;;;;8.18;4.53;;;;;;;-3.90;63.06;95242.69;5122575;27;20032;-67
2022/02/04 06:37:38;;;;;;;7.90;4.63;;;;;;;-3.76;62.29;95252.56;5112958;27;20026;-67
2022/02/04 06:40:04;;;;;;;6.68;3.80;;;;;;;-3.71;62.34;95248.22;5112933;27;20450;-67
2022/02/04 06:42:30;;;;;;;40.63;17.48;;;;;;;-3.69;63.53;95246.50;5131956;27;20444;-67
2022/02/04 06:44:56;;;;;;;103.90;40.42;;;;;;;-3.68;64.07;95250.69;5130454;27;20027;-67
2022/02/04 06:47:21;;;;;;;158.40;60.33;;;;;;;-3.84;64.79;95255.25;5132283;27;20031;-68
2022/02/04 06:49:47;;;;;;;159.32;58.63;;;;;;;-3.96;64.83;95229.28;5124791;27;20028;-67
2022/02/04 06:52:13;;;;;;;150.68;55.92;;;;;;;-3.77;65.29;95261.03;5111590;28;20023;-68
2022/02/04 06:54:38;;;;;;;121.35;47.83;;;;;;;-3.71;65.51;95249.91;5094743;28;20562;-67
2022/02/04 06:57:04;;;;;;;127.88;52.45;;;;;;;-3.62;64.94;95247.22;5111462;28;20102;-67
2022/02/04 06:59:29;;;;;;;139.07;53.83;;;;;;;-3.57;65.43;95247.94;5127279;27;20030;-67
2022/02/04 07:01:55;;;;;;;131.80;52.13;;;;;;;-3.54;64.65;95236.88;5121642;27;20047;-67
2022/02/04 07:04:21;;;;;;;140.88;55.30;;;;;;;-3.46;65.05;95252.78;5096412;28;20040;-67
2022/02/04 07:06:54;;;;;;;137.30;54.63;;;;;;;-3.44;64.74;95246.81;5112426;27;20023;-67
2022/02/04 07:16:42;;;;;;;13.10;6.65;;;;;;;-3.19;61.85;95251.34;5113187;27;20028;-68
2022/02/04 07:21:51;;;;;;;10.32;5.35;;;;;;;-3.00;61.25;95252.59;5114480;27;20039;-67
2022/02/04 07:24:17;;;;;;;10.30;5.53;;;;;;;-2.93;60.64;95243.13;5114021;27;20043;-67
2022/02/04 07:26:42;;;;;;;8.48;4.65;;;;;;;-2.81;59.91;95242.84;5132740;27;20023;-67
2022/02/04 07:29:08;;;;;;;9.60;4.88;;;;;;;-2.74;60.86;95234.19;5105034;27;20043;-67
2022/02/04 07:31:37;;;;;;;7.53;4.35;;;;;;;-2.74;60.28;95249.44;5108128;28;20019;-67
2022/02/04 07:34:37;;;;;;;8.48;4.75;;;;;;;-2.63;60.69;95248.34;5103602;28;20023;-67
2022/02/04 07:42:30;;;;;;;28.98;13.30;;;;;;;-1.97;61.06;95247.50;5110053;27;20092;-67
2022/02/04 07:44:56;;;;;;;63.13;31.90;;;;;;;-1.67;59.87;95247.50;5105043;28;20024;-67
2022/02/04 07:47:21;;;;;;;24.77;12.40;;;;;;;-1.30;59.07;95254.09;5105688;28;20032;-68
2022/02/04 07:49:46;;;;;;;40.05;18.52;;;;;;;-0.86;57.35;95251.91;5105935;27;20024;-67
2022/02/04 07:52:12;;;;;;;26.50;13.80;;;;;;;-0.53;56.29;95249.97;5090522;27;20043;-68
2022/02/04 07:54:37;;;;;;;34.90;15.60;;;;;;;-0.39;55.38;95252.09;5098885;28;20032;-68
2022/02/04 07:57:03;;;;;;;57.35;25.77;;;;;;;-0.04;53.28;95256.84;5109339;27;20518;-68
2022/02/04 07:59:28;;;;;;;48.97;26.17;;;;;;;0.20;52.29;95246.66;5107172;27;20511;-68
2022/02/04 08:01:54;;;;;;;77.93;40.67;;;;;;;0.50;51.68;95243.88;5088700;28;20036;-68
2022/02/04 08:04:27;;;;;;;65.68;35.63;;;;;;;0.64;51.46;95236.53;5093372;28;20031;-68
2022/02/04 08:06:58;;;;;;;43.42;24.05;;;;;;;0.51;51.45;95232.78;5105392;28;20035;-68
2022/02/04 08:09:38;;;;;;;28.17;16.23;;;;;;;0.63;51.31;95250.22;5106118;27;20118;-68
2022/02/04 08:20:20;;;;;;;29.92;16.30;;;;;;;0.87;51.60;95240.81;5105290;28;20032;-68
2022/02/04 08:30:39;;;;;;;26.33;16.02;;;;;;;0.99;51.17;95244.59;5109486;28;20584;-68
2022/02/04 08:38:41;;;;;;;22.08;12.48;;;;;;;0.80;50.78;95232.50;5108870;28;20084;-67
2022/02/04 08:49:23;;;;;;;21.63;12.88;;;;;;;0.76;52.24;95237.81;5086579;28;20024;-68
2022/02/04 08:54:31;;;;;;;20.90;13.30;;;;;;;0.83;51.77;95227.28;5101121;28;20020;-68
2022/02/04 09:02:00;;;;;;;24.15;15.13;;;;;;;0.55;51.79;95219.81;5103115;28;20040;-69
2022/02/04 09:04:40;;;;;;;26.52;15.32;;;;;;;0.59;52.29;95235.91;5102732;28;20267;-68
2022/02/04 09:07:09;;;;;;;25.77;14.95;;;;;;;0.66;52.79;95222.81;5097647;28;20043;-68
2022/02/04 09:12:21;;;;;;;18.95;11.13;;;;;;;0.78;52.69;95226.66;5110960;28;20554;-68
2022/02/04 09:23:14;;;;;;;16.20;10.73;;;;;;;0.81;52.68;95200.94;5071697;28;20031;-68
2022/02/04 09:25:39;;;;;;;28.70;17.17;;;;;;;0.74;52.89;95208.91;5085591;28;20417;-67
2022/02/04 09:28:05;;;;;;;20.75;13.50;;;;;;;0.69;53.57;95208.25;5105131;28;20027;-68
2022/02/04 09:30:30;;;;;;;17.15;10.30;;;;;;;0.70;53.42;95208.19;5090434;28;20425;-68
2022/02/04 09:32:56;;;;;;;18.10;11.20;;;;;;;0.67;53.11;95210.88;5095553;28;20038;-67
2022/02/04 09:35:22;;;;;;;23.70;14.20;;;;;;;0.76;53.61;95202.00;5113488;28;20034;-68
2022/02/04 09:37:49;;;;;;;33.00;14.27;;;;;;;0.80;53.53;95199.25;5070870;28;20081;-67
2022/02/04 09:40:15;;;;;;;24.58;14.35;;;;;;;0.64;53.66;95186.25;5095019;27;20047;-69
2022/02/04 09:42:40;;;;;;;25.73;15.88;;;;;;;0.71;53.90;95191.13;5061703;28;20036;-68
2022/02/04 09:45:07;;;;;;;29.00;15.10;;;;;;;0.75;53.86;95184.97;5076428;28;20398;-68
2022/02/04 09:47:35;;;;;;;30.02;14.85;;;;;;;0.60;54.05;95153.16;5112580;27;20031;-68
2022/02/04 09:50:02;;;;;;;23.77;15.15;;;;;;;0.75;53.76;95172.19;5102244;27;20092;-67
2022/02/04 10:18:04;;;;;;;25.10;13.45;;;;;;;0.50;54.17;95185.91;5073525;27;20105;-67
2022/02/04 10:20:29;;;;;;;22.58;11.90;;;;;;;0.48;54.55;95182.59;5104788;27;20046;-68
2022/02/04 10:22:55;;;;;;;18.50;9.95;;;;;;;0.61;54.54;95175.28;5091262;28;20478;-67
2022/02/04 10:25:21;;;;;;;15.07;9.32;;;;;;;0.82;53.91;95177.03;5085116;27;20053;-69
2022/02/04 10:27:47;;;;;;;20.30;12.63;;;;;;;0.95;53.84;95177.38;5102276;28;20023;-67
2022/02/04 10:30:15;;;;;;;17.63;8.10;;;;;;;1.04;52.70;95150.59;5108938;27;20036;-67
2022/02/04 10:32:50;;;;;;;15.93;8.48;;;;;;;1.05;52.69;95149.69;5084096;28;20557;-67
2022/02/04 10:35:38;;;;;;;13.63;9.50;;;;;;;1.07;53.75;95142.78;5095012;27;20031;-68
2022/02/04 10:41:08;;;;;;;12.93;7.78;;;;;;;1.22;51.85;95144.72;5086016;27;20556;-67
2022/02/04 10:51:41;;;;;;;16.65;10.50;;;;;;;1.22;51.63;95138.78;5109704;27;20089;-67
2022/02/04 10:54:47;;;;;;;17.77;9.48;;;;;;;1.18;51.93;95134.69;5092647;28;20043;-67
2022/02/04 10:59:47;;;;;;;21.02;11.50;;;;;;;1.31;52.22;95128.16;5086148;27;20111;-67
2022/02/04 11:02:20;;;;;;;22.02;14.93;;;;;;;1.46;51.94;95131.81;5083801;28;20032;-67
2022/02/04 11:05:04;;;;;;;26.10;13.38;;;;;;;1.49;52.76;95127.38;5088700;28;20028;-67
2022/02/04 11:10:14;;;;;;;24.42;16.13;;;;;;;1.70;52.61;95125.66;5091676;27;20051;-67
2022/02/04 11:52:08;;;;;;;25.65;18.15;;;;;;;1.96;52.26;95090.34;5109816;28;20051;-68
2022/02/04 11:54:44;;;;;;;19.33;13.27;;;;;;;2.00;51.25;95091.88;5094651;28;20039;-68
2022/02/04 11:57:10;;;;;;;22.73;13.50;;;;;;;1.98;51.35;95088.56;5073498;28;20036;-67
2022/02/04 11:59:43;;;;;;;23.00;13.90;;;;;;;1.99;50.52;95085.09;5101105;27;20394;-68
2022/02/04 12:02:26;;;;;;;23.67;15.85;;;;;;;2.02;50.80;95079.81;5109170;28;20028;-67
2022/02/04 12:05:04;;;;;;;19.88;13.18;;;;;;;2.05;50.30;95076.31;5101975;28;20489;-67
2022/02/04 12:07:55;;;;;;;19.65;11.85;;;;;;;1.98;50.11;95068.91;5104692;28;20031;-67
2022/02/04 12:10:31;;;;;;;14.27;8.77;;;;;;;1.99;50.92;95074.84;5109862;28;20024;-67
2022/02/04 12:12:59;;;;;;;14.18;8.25;;;;;;;1.99;49.98;95064.59;5092425;28;20428;-67
2022/02/04 12:15:27;;;;;;;16.95;8.57;;;;;;;1.94;49.66;95067.34;5108755;28;20040;-67
2022/02/04 12:17:53;;;;;;;15.40;9.73;;;;;;;1.89;49.20;95061.59;5125129;27;20507;-67
2022/02/04 12:20:47;;;;;;;12.43;8.73;;;;;;;2.05;49.19;95061.75;5112751;27;20065;-68
2022/02/04 12:23:41;;;;;;;11.63;8.02;;;;;;;2.19;49.04;95051.69;5112696;27;20070;-67
2022/02/04 12:26:09;;;;;;;12.77;8.50;;;;;;;2.10;49.62;95049.56;5121578;28;20114;-67
2022/02/04 12:28:34;;;;;;;15.52;8.75;;;;;;;2.15;49.29;95049.34;5131362;27;20468;-67
2022/02/04 12:31:25;;;;;;;15.55;9.20;;;;;;;2.13;49.16;95035.78;5117943;27;20059;-67
2022/02/04 12:34:05;;;;;;;14.73;9.47;;;;;;;2.22;49.35;95036.16;5119770;28;20042;-67
2022/02/04 12:36:32;;;;;;;10.95;8.07;;;;;;;2.24;49.41;95042.06;5093042;28;20225;-67
2022/02/04 12:39:00;;;;;;;11.80;7.63;;;;;;;2.25;48.84;95040.31;5109555;28;20046;-67
2022/02/04 12:41:32;;;;;;;11.63;8.65;;;;;;;2.20;48.96;95035.44;5111072;28;20024;-68
2022/02/04 12:43:59;;;;;;;30.42;15.90;;;;;;;2.24;49.30;95039.50;5097789;28;20470;-69
2022/02/04 12:46:26;;;;;;;19.23;12.23;;;;;;;2.20;49.28;95025.19;5103467;28;20085;-67
2022/02/04 12:49:01;;;;;;;13.90;9.40;;;;;;;2.17;49.71;95027.88;5067773;28;20500;-68
2022/02/04 12:54:11;;;;;;;17.75;9.57;;;;;;;2.17;50.26;95012.50;5105178;28;20641;-67
2022/02/04 13:07:47;;;;;;;20.23;13.20;;;;;;;2.35;51.03;95033.88;5093172;28;20582;-68
2022/02/04 13:10:17;;;;;;;33.55;18.63;;;;;;;2.44;51.27;95040.28;5107751;28;20038;-68
2022/02/04 13:12:53;;;;;;;22.02;14.50;;;;;;;2.45;50.85;95021.44;5071461;28;20582;-68
2022/02/04 13:15:19;;;;;;;24.30;14.10;;;;;;;2.43;49.93;95018.94;5095802;27;20085;-67
2022/02/04 13:17:44;;;;;;;28.20;19.77;;;;;;;2.49;49.87;95025.53;5092010;28;20107;-67
2022/02/04 13:20:10;;;;;;;26.75;14.18;;;;;;;2.51;48.99;95010.91;5111200;27;20036;-67
2022/02/04 13:22:37;;;;;;;26.35;15.68;;;;;;;2.51;49.56;95000.63;5089004;27;20044;-68
2022/02/04 13:25:23;;;;;;;22.10;14.88;;;;;;;2.57;48.78;95002.91;5108355;27;20127;-67
2022/02/04 13:28:03;;;;;;;24.33;14.38;;;;;;;2.59;48.72;94998.53;5115111;27;20027;-66
2022/02/04 13:30:31;;;;;;;19.30;13.37;;;;;;;2.64;48.76;94986.28;5116663;27;20124;-68
2022/02/04 13:32:57;;;;;;;23.30;14.35;;;;;;;2.69;48.70;94973.25;5100132;27;20035;-67
2022/02/04 13:35:40;;;;;;;20.23;13.35;;;;;;;2.78;48.32;94977.09;5091156;28;20040;-67
2022/02/04 13:38:21;;;;;;;19.17;12.95;;;;;;;2.77;47.84;94976.28;5111235;28;20084;-66
2022/02/04 13:40:59;;;;;;;21.17;12.50;;;;;;;2.73;47.99;94961.09;5101649;27;20106;-67
2022/02/04 13:43:34;;;;;;;18.45;12.32;;;;;;;2.79;47.67;94973.63;5090799;28;20107;-67
2022/02/04 13:49:10;;;;;;;19.45;13.65;;;;;;;2.85;48.74;94960.50;5080567;28;20127;-68
2022/02/04 13:54:53;;;;;;;;;;;;;;;2.89;48.00;94970.50;5110690;28;20114;-67
2022/02/04 14:00:14;;;;;;;19.00;13.40;;;;;;;2.77;47.74;94976.28;5106882;28;20036;-67
2022/02/04 14:02:44;;;;;;;19.23;12.50;;;;;;;2.64;48.42;94973.47;5116183;27;20020;-67
2022/02/04 14:05:11;;;;;;;17.70;11.10;;;;;;;2.66;48.63;94974.22;5108992;28;20032;-66
2022/02/04 14:07:45;;;;;;;22.25;11.73;;;;;;;2.60;48.69;94978.84;5109838;28;20016;-66
2022/02/04 14:10:46;;;;;;;17.55;12.30;;;;;;;2.55;48.46;94978.22;5091797;28;20039;-66
2022/02/04 14:13:10;;;;;;;26.20;18.52;;;;;;;2.51;48.21;94980.13;5094174;28;20520;-66
2022/02/04 14:15:37;;;;;;;23.33;18.75;;;;;;;2.48;48.47;94980.28;5107470;27;20043;-67
2022/02/04 14:18:09;;;;;;;20.85;13.80;;;;;;;2.45;49.08;94985.53;5080400;28;20508;-66
2022/02/04 14:20:36;;;;;;;24.58;15.75;;;;;;;2.46;49.14;94989.78;5108996;28;20028;-67
2022/02/04 14:23:02;;;;;;;24.45;15.57;;;;;;;2.49;48.73;94996.50;5103437;28;20072;-67
2022/02/04 14:25:28;;;;;;;24.33;14.02;;;;;;;2.44;48.94;94989.00;5111677;27;20054;-66
2022/02/04 14:27:57;;;;;;;23.73;13.82;;;;;;;2.41;48.93;95005.38;5094248;28;20428;-66
2022/02/04 14:30:28;;;;;;;23.33;15.65;;;;;;;2.40;49.32;95008.84;5105631;28;20027;-66
2022/02/04 14:33:01;;;;;;;25.58;16.45;;;;;;;2.35;49.10;94989.47;5093314;28;20127;-66
2022/02/04 15:03:25;;;;;;;24.75;14.43;;;;;;;2.06;55.04;94989.06;5101355;28;20066;-67
2022/02/04 15:05:22;;;;;;;35.35;22.23;;;;;;;2.00;54.12;94994.50;5102887;28;20077;-66
2022/02/04 15:07:50;;;;;;;32.80;18.95;;;;;;;1.97;55.73;94997.19;5108492;28;20045;-66
2022/02/04 15:10:28;;;;;;;23.35;13.82;;;;;;;1.92;56.32;94981.19;5109294;28;20032;-66
2022/02/04 15:12:53;;;;;;;20.02;12.95;;;;;;;1.87;55.82;94976.31;5091523;28;20034;-67
2022/02/04 15:15:19;;;;;;;18.52;11.55;;;;;;;1.82;56.08;94985.13;5106601;27;20056;-66
2022/02/04 15:17:44;;;;;;;16.58;10.80;;;;;;;1.76;56.89;94969.13;5103380;28;20024;-66
2022/02/04 15:20:10;;;;;;;16.88;11.80;;;;;;;1.66;55.64;94973.00;5107944;28;20039;-66
2022/02/04 15:22:35;;;;;;;17.85;10.60;;;;;;;1.65;56.86;94973.91;5103766;28;20065;-67
2022/02/04 15:25:10;;;;;;;16.38;11.55;;;;;;;1.67;57.22;94969.53;5105139;28;20058;-67
2022/02/04 15:27:39;;;;;;;17.70;11.48;;;;;;;1.59;59.20;94956.25;5105053;28;20018;-67
2022/02/04 15:30:06;;;;;;;17.33;11.75;;;;;;;1.56;59.11;94964.06;5111045;28;20400;-66
2022/02/04 15:32:31;;;;;;;17.55;11.00;;;;;;;1.50;56.88;94964.34;5094568;27;20132;-66
2022/02/04 15:34:57;;;;;;;21.00;11.80;;;;;;;1.44;58.46;94967.19;5090086;28;20474;-66
2022/02/04 15:37:22;;;;;;;19.42;11.68;;;;;;;1.34;58.55;94961.66;5095630;28;20389;-66
2022/02/04 15:39:47;;;;;;;24.88;13.27;;;;;;;1.32;56.99;94963.44;5111626;28;20028;-66
2022/02/04 15:42:15;;;;;;;25.20;13.52;;;;;;;1.21;57.69;94957.97;5113055;27;20039;-66
2022/02/04 15:44:56;;;;;;;23.83;12.77;;;;;;;1.21;57.80;94969.03;5090539;28;20462;-66
2022/02/04 15:47:30;;;;;;;20.08;12.32;;;;;;;1.16;58.54;94976.06;5110247;28;20493;-67
2022/02/04 15:51:05;;;;;;;15.88;10.77;;;;;;;1.05;60.40;94962.91;5093188;28;20507;-66
2022/02/04 15:55:32;;;;;;;18.52;11.65;;;;;;;0.78;59.64;94955.53;5097991;28;20486;-67
2022/02/04 15:58:18;;;;;;;16.80;11.88;;;;;;;0.77;60.65;94956.41;5102553;28;20028;-66
2022/02/04 16:05:44;;;;;;;25.42;14.85;;;;;;;0.69;59.40;94966.13;5102903;28;20039;-66
2022/02/04 16:08:13;;;;;;;19.35;13.75;;;;;;;0.66;59.35;94961.97;5111820;27;20032;-66
2022/02/04 16:10:57;;;;;;;22.98;12.88;;;;;;;0.65;60.20;94962.88;5088899;28;20032;-66
2022/02/04 16:13:36;;;;;;;17.75;11.35;;;;;;;0.61;60.73;94952.81;5089849;28;20019;-66
2022/02/04 16:16:21;;;;;;;20.42;13.20;;;;;;;0.53;60.54;94965.09;5093020;28;20089;-66
2022/02/04 16:26:49;;;;;;;22.70;13.38;;;;;;;0.32;61.43;94956.59;5108936;28;20019;-66
2022/02/04 16:29:10;;;;;;;18.52;12.27;;;;;;;0.21;61.22;94950.19;5090067;28;20071;-66
2022/02/04 16:31:35;;;;;;;21.60;13.43;;;;;;;0.31;60.74;94952.38;5109724;28;20425;-67
2022/02/04 16:34:08;;;;;;;28.88;15.07;;;;;;;0.28;61.27;94960.16;5084515;28;20049;-67
2022/02/04 16:36:34;;;;;;;25.63;15.07;;;;;;;0.23;61.71;94957.81;5108690;28;20032;-66
2022/02/04 16:39:01;;;;;;;29.40;15.32;;;;;;;0.27;60.22;94959.31;5119666;28;20421;-66
2022/02/04 16:41:43;;;;;;;23.75;16.75;;;;;;;0.30;59.95;94958.38;5089836;28;20027;-67
2022/02/04 16:44:08;;;;;;;30.90;17.75;;;;;;;0.25;59.40;94945.78;5093214;28;20469;-66
2022/02/04 16:46:34;;;;;;;30.90;17.45;;;;;;;0.30;60.96;94955.81;5107673;28;20057;-67
2022/02/04 16:48:59;;;;;;;27.45;17.27;;;;;;;0.34;60.28;94957.38;5113200;27;20036;-66
2022/02/04 16:51:25;;;;;;;24.00;15.23;;;;;;;0.36;59.58;94964.09;5113318;28;20069;-66
2022/02/04 16:53:50;;;;;;;27.27;16.35;;;;;;;0.36;59.32;94958.13;5108960;27;20039;-67
2022/02/04 16:56:15;;;;;;;24.70;16.05;;;;;;;0.39;59.31;94963.09;5108379;28;20028;-67
2022/02/04 16:58:41;;;;;;;23.50;14.25;;;;;;;0.40;59.60;94959.69;5115737;27;20036;-67
2022/02/04 17:01:06;;;;;;;19.10;13.45;;;;;;;0.41;58.78;94962.16;5095569;28;20560;-67
2022/02/04 17:03:32;;;;;;;18.70;12.55;;;;;;;0.41;59.68;94961.31;5111850;27;20038;-67
2022/02/04 17:06:01;;;;;;;18.80;12.88;;;;;;;0.40;60.48;94969.91;5094584;28;20043;-67
2022/02/04 17:08:35;;;;;;;22.42;12.98;;;;;;;0.40;60.05;94959.69;5109991;28;20073;-67
2022/02/04 17:11:02;;;;;;;16.98;12.50;;;;;;;0.36;60.08;94950.44;5093644;28;20050;-67
2022/02/04 17:13:28;;;;;;;20.08;12.40;;;;;;;0.36;60.10;94963.22;5097448;28;20020;-67
2022/02/04 17:15:54;;;;;;;21.15;12.70;;;;;;;0.35;60.49;94957.28;5108005;28;20047;-68
2022/02/04 17:18:19;;;;;;;19.80;12.80;;;;;;;0.33;60.48;94959.06;5106967;28;20028;-67
2022/02/04 17:20:47;;;;;;;21.23;12.32;;;;;;;0.34;60.10;94953.09;5089193;28;20027;-67
2022/02/04 17:23:15;;;;;;;19.08;12.77;;;;;;;0.33;60.32;94959.06;5124105;27;20035;-67
2022/02/04 17:25:43;;;;;;;21.20;12.68;;;;;;;0.33;60.03;94953.97;5105872;28;20024;-68
2022/02/04 17:28:08;;;;;;;20.08;12.68;;;;;;;0.32;61.09;94961.72;5120087;27;20088;-68
2022/02/04 17:30:33;;;;;;;19.60;12.77;;;;;;;0.32;60.24;94965.09;5088290;28;20032;-68
2022/02/04 17:32:59;;;;;;;17.13;11.63;;;;;;;0.30;59.99;94971.97;5110456;27;20035;-67
2022/02/04 17:35:26;;;;;;;17.73;11.15;;;;;;;0.27;60.97;94971.28;5091620;28;20474;-67
2022/02/04 17:37:56;;;;;;;19.15;11.40;;;;;;;0.28;61.14;94976.34;5092631;28;20043;-68
2022/02/04 17:40:21;;;;;;;17.75;11.25;;;;;;;0.25;61.07;94966.22;5095770;27;20084;-68
2022/02/04 17:42:47;;;;;;;18.13;11.45;;;;;;;0.25;60.94;94971.31;5057351;28;20115;-68
2022/02/04 17:45:17;;;;;;;14.82;11.13;;;;;;;0.24;60.26;94976.50;5091539;28;20416;-68
2022/02/04 17:47:42;;;;;;;17.20;11.05;;;;;;;0.25;59.79;94968.78;5103785;28;20035;-68
2022/02/04 17:50:14;;;;;;;18.30;10.98;;;;;;;0.25;59.61;94961.09;5111938;28;20035;-68
2022/02/04 17:52:46;;;;;;;16.48;11.20;;;;;;;0.25;59.24;94968.78;5100224;27;20066;-67
2022/02/04 17:55:19;;;;;;;20.35;13.43;;;;;;;0.25;59.51;94975.63;5112696;27;20039;-67
2022/02/04 17:57:55;;;;;;;27.65;16.35;;;;;;;0.26;59.12;94972.19;5111605;27;20234;-68
2022/02/04 18:03:09;;;;;;;18.92;12.13;;;;;;;0.14;60.58;94974.34;5103621;27;20046;-68
2022/02/04 18:05:59;;;;;;;19.75;12.55;;;;;;;0.08;60.25;94966.06;5091743;28;20047;-68
2022/02/04 18:08:25;;;;;;;19.70;10.68;;;;;;;0.04;59.93;94980.69;5105847;27;20024;-70